Terminal Aerodrome Forecast
Issued by NWS Cleveland, OH

Home | Current Version | Previous Version | Graphics & Text | Print | Product List | Glossary On
Versions: 1 2 3 4 5 6 7 8 9 10 11 12 13 14 15 16 17 18 19 20 21
000
FTUS41 KCLE 211700
TAFTOL
TAF
KTOL 211724Z 2118/2218 23010G15KT P6SM BKN200
     FM212300 25008KT P6SM OVC100
     FM220200 24007KT P6SM -SHRA OVC050
     FM220600 25008KT 6SM -SHRA BR OVC012
     FM220800 28012KT P6SM OVC015
     FM221000 30015G25KT P6SM OVC015
     FM221300 30020G30KT P6SM SCT250=

USA.gov is the U.S. government's official web portal to all federal, state and local government web resources and services.